Time;durP1;ratioP1;P1;durP2;ratioP2;P2;SDS_P1;SDS_P2;PMS_P1;PMS_P2;Temp;Humidity;BMP_temperature;BMP_pressure;BME280_temperature;BME280_humidity;BME280_pressure;Samples;Min_cycle;Max_cycle;Signal;HPM_P1;HPM_P2
2023/02/02 00:00:20;;;;;;;16.08;5.18;;;;;;;6.31;100.00;101218.06;693753;28;1426;-63
2023/02/02 00:00:40;;;;;;;16.48;5.03;;;;;;;6.30;100.00;101227.59;689321;28;4298;-64
2023/02/02 00:01:00;;;;;;;15.47;4.87;;;;;;;6.28;100.00;101221.47;689709;28;1390;-66
2023/02/02 00:01:22;;;;;;;14.70;4.97;;;;;;;6.32;100.00;101221.56;686851;28;1584;-62
2023/02/02 00:01:51;;;;;;;16.40;5.25;;;;;;;6.39;100.00;101224.31;686622;28;1403;-62
2023/02/02 00:02:11;;;;;;;15.10;5.40;;;;;;;6.33;100.00;101221.59;686503;28;1315;-66
2023/02/02 00:02:32;;;;;;;15.75;5.05;;;;;;;6.35;100.00;101217.28;686350;28;1414;-65
2023/02/02 00:02:52;;;;;;;17.37;5.20;;;;;;;6.43;100.00;101228.72;687211;28;1570;-63
2023/02/02 00:03:13;;;;;;;16.57;5.50;;;;;;;6.41;100.00;101220.03;688929;28;1439;-64
2023/02/02 00:03:34;;;;;;;16.70;5.65;;;;;;;6.35;100.00;101222.47;688134;28;1449;-63
2023/02/02 00:03:55;;;;;;;18.08;6.03;;;;;;;6.34;100.00;101212.06;689135;28;4366;-64
2023/02/02 00:04:22;;;;;;;14.68;5.90;;;;;;;6.34;100.00;101222.44;684018;28;2205;-65
2023/02/02 00:04:42;;;;;;;13.27;5.00;;;;;;;6.38;100.00;101225.13;683841;28;1584;-64
2023/02/02 00:05:03;;;;;;;15.03;5.20;;;;;;;6.40;100.00;101225.19;681358;28;1422;-65
2023/02/02 00:05:23;;;;;;;15.88;5.25;;;;;;;6.40;100.00;101230.38;681253;28;1473;-66
2023/02/02 00:05:45;;;;;;;14.70;5.23;;;;;;;6.43;100.00;101226.13;682154;28;1614;-63
2023/02/02 00:06:06;;;;;;;12.93;5.25;;;;;;;6.37;100.00;101218.22;683556;28;1471;-64
2023/02/02 00:06:28;;;;;;;15.07;5.22;;;;;;;6.38;100.00;101224.25;684763;28;1306;-65
2023/02/02 00:06:48;;;;;;;15.88;5.35;;;;;;;6.32;100.00;101219.81;685402;28;4391;-62
2023/02/02 00:07:09;;;;;;;16.60;5.43;;;;;;;6.36;100.00;101221.66;689964;28;1150;-64
2023/02/02 00:07:29;;;;;;;15.63;5.63;;;;;;;6.40;100.00;101222.59;692169;28;1180;-65
2023/02/02 00:07:50;;;;;;;14.93;5.40;;;;;;;6.34;100.00;101220.75;692749;28;1378;-64
2023/02/02 00:08:10;;;;;;;17.37;5.57;;;;;;;6.30;100.00;101224.13;692121;28;1436;-64
2023/02/02 00:08:31;;;;;;;17.13;5.88;;;;;;;6.35;100.00;101212.09;692227;28;1548;-65
2023/02/02 00:08:51;;;;;;;17.60;6.23;;;;;;;6.33;100.00;101221.59;693469;28;1393;-63
2023/02/02 00:09:14;;;;;;;16.55;5.50;;;;;;;6.39;100.00;101218.25;693471;28;1350;-65
2023/02/02 00:09:35;;;;;;;18.75;5.55;;;;;;;6.38;100.00;101225.13;691995;28;1634;-65
2023/02/02 00:09:55;;;;;;;16.07;5.43;;;;;;;6.33;100.00;101216.38;692142;28;4451;-65
2023/02/02 00:10:16;;;;;;;15.80;5.53;;;;;;;6.30;100.00;101217.19;692675;28;1667;-64
2023/02/02 00:10:36;;;;;;;18.55;6.13;;;;;;;6.26;100.00;101215.38;690197;28;1733;-64
2023/02/02 00:10:57;;;;;;;16.53;5.90;;;;;;;6.24;100.00;101217.03;690027;28;1365;-64
2023/02/02 00:11:18;;;;;;;16.50;5.60;;;;;;;6.25;100.00;101215.34;688330;28;1922;-64
2023/02/02 00:11:38;;;;;;;15.02;5.53;;;;;;;6.24;100.00;101222.25;691705;28;1496;-64
2023/02/02 00:12:00;;;;;;;16.38;5.82;;;;;;;6.21;100.00;101214.38;691043;28;1444;-65
2023/02/02 00:12:20;;;;;;;18.60;5.85;;;;;;;6.21;100.00;101221.31;689222;28;1609;-65
2023/02/02 00:12:40;;;;;;;18.10;5.53;;;;;;;6.20;100.00;101219.56;691930;28;4353;-64
2023/02/02 00:13:01;;;;;;;16.05;5.50;;;;;;;6.26;100.00;101219.69;694668;28;1357;-64
2023/02/02 00:13:21;;;;;;;16.47;5.87;;;;;;;6.24;100.00;101223.97;693915;28;1338;-63
2023/02/02 00:13:42;;;;;;;15.77;5.72;;;;;;;6.25;100.00;101225.72;692664;28;1449;-66
2023/02/02 00:14:03;;;;;;;12.95;5.10;;;;;;;6.24;100.00;101217.03;689412;28;1244;-65
2023/02/02 00:14:24;;;;;;;15.87;5.17;;;;;;;6.21;100.00;101217.00;689532;28;1573;-65
2023/02/02 00:14:44;;;;;;;14.30;5.32;;;;;;;6.25;100.00;101217.94;688097;28;1430;-63
2023/02/02 00:15:05;;;;;;;18.45;5.80;;;;;;;6.21;100.00;101211.78;685900;28;1426;-65
2023/02/02 00:15:25;;;;;;;16.27;5.35;;;;;;;6.26;100.00;101211.91;686880;28;1390;-63
2023/02/02 00:15:45;;;;;;;15.93;5.60;;;;;;;6.26;100.00;101215.38;687750;28;4353;-65
2023/02/02 00:16:24;;;;;;;14.97;5.73;;;;;;;6.20;100.00;101223.00;689593;28;1602;-65
2023/02/02 00:16:50;;;;;;;17.20;5.68;;;;;;;6.23;100.00;101215.31;690806;28;1496;-65
2023/02/02 00:17:11;;;;;;;16.40;5.93;;;;;;;6.29;100.00;101210.25;691527;28;1611;-60
2023/02/02 00:17:31;;;;;;;16.40;5.47;;;;;;;6.33;100.00;101215.50;690563;28;1660;-64
2023/02/02 00:17:52;;;;;;;15.90;5.37;;;;;;;6.28;100.00;101215.41;690877;28;1418;-64
2023/02/02 00:18:12;;;;;;;17.45;5.90;;;;;;;6.23;100.00;101215.31;692785;28;1691;-65
2023/02/02 00:18:33;;;;;;;14.00;5.80;;;;;;;6.21;100.00;101217.00;692679;28;1382;-66
2023/02/02 00:19:05;;;;;;;14.30;5.57;;;;;;;6.22;100.00;101220.47;693715;28;4311;-65
2023/02/02 00:19:29;;;;;;;15.13;5.68;;;;;;;6.25;100.00;101215.34;695845;28;1440;-64
2023/02/02 00:19:49;;;;;;;15.77;5.63;;;;;;;6.30;100.00;101221.53;693722;28;2039;-63
2023/02/02 00:20:10;;;;;;;14.88;6.00;;;;;;;6.37;100.00;101218.22;693499;28;1290;-64
2023/02/02 00:20:33;;;;;;;14.43;5.57;;;;;;;6.40;100.00;101218.28;693951;28;1592;-64
2023/02/02 00:20:53;;;;;;;15.30;5.90;;;;;;;6.43;100.00;101214.88;691371;28;1398;-64
2023/02/02 00:21:14;;;;;;;15.83;5.50;;;;;;;6.37;100.00;101223.41;691944;28;1330;-63
2023/02/02 00:21:34;;;;;;;17.27;5.43;;;;;;;6.31;100.00;101215.47;692520;28;1340;-64
2023/02/02 00:21:55;;;;;;;16.23;5.73;;;;;;;6.24;100.00;101219.66;691989;28;5764;-64
2023/02/02 00:22:16;;;;;;;16.52;6.10;;;;;;;6.30;100.00;101216.34;688481;28;1398;-65
2023/02/02 00:22:36;;;;;;;17.10;5.80;;;;;;;6.26;100.00;101220.56;686519;28;1633;-63
2023/02/02 00:22:57;;;;;;;16.88;5.40;;;;;;;6.28;100.00;101221.47;689878;28;1416;-65
2023/02/02 00:23:17;;;;;;;15.00;5.10;;;;;;;6.26;100.00;101211.91;684634;28;1455;-64
2023/02/02 00:23:37;;;;;;;20.00;5.90;;;;;;;6.27;100.00;101217.13;686184;28;1528;-62
2023/02/02 00:23:58;;;;;;;17.77;5.68;;;;;;;6.27;100.00;101211.03;691968;28;1552;-64
2023/02/02 00:24:19;;;;;;;16.23;6.00;;;;;;;6.30;100.00;101217.19;692493;28;1456;-63
2023/02/02 00:24:39;;;;;;;18.15;6.10;;;;;;;6.34;100.00;101209.47;692956;28;4412;-64
2023/02/02 00:24:59;;;;;;;17.13;5.78;;;;;;;6.27;100.00;101208.44;689456;28;1414;-64
2023/02/02 00:25:20;;;;;;;17.00;5.37;;;;;;;6.24;100.00;101211.00;690817;28;1431;-65
2023/02/02 00:25:40;;;;;;;17.08;5.90;;;;;;;6.21;100.00;101210.94;691108;28;1461;-64
2023/02/02 00:26:01;;;;;;;15.20;5.97;;;;;;;6.18;100.00;101210.88;691418;28;1452;-65
2023/02/02 00:26:22;;;;;;;16.40;5.90;;;;;;;6.19;100.00;101212.59;691554;28;1551;-64
2023/02/02 00:26:43;;;;;;;17.58;5.90;;;;;;;6.23;100.00;101204.03;690908;28;1540;-62
2023/02/02 00:27:04;;;;;;;15.68;5.63;;;;;;;6.18;100.00;101222.13;693924;28;1290;-66
2023/02/02 00:27:24;;;;;;;14.70;5.80;;;;;;;6.23;100.00;101217.00;694176;28;1546;-64
2023/02/02 00:27:45;;;;;;;12.80;5.47;;;;;;;6.23;100.00;101219.59;687840;28;4306;-66
2023/02/02 00:28:05;;;;;;;14.18;5.40;;;;;;;6.19;100.00;101207.41;688962;28;1228;-64
2023/02/02 00:28:26;;;;;;;15.77;5.35;;;;;;;6.26;100.00;101211.91;687980;28;1446;-64
2023/02/02 00:28:47;;;;;;;16.77;5.70;;;;;;;6.30;100.00;101213.75;688700;28;1406;-64
2023/02/02 00:29:13;;;;;;;15.07;5.60;;;;;;;6.25;100.00;101212.75;685839;28;1343;-64
2023/02/02 00:29:33;;;;;;;14.38;5.43;;;;;;;6.24;100.00;101206.66;684966;28;1501;-64
2023/02/02 00:29:56;;;;;;;18.08;5.55;;;;;;;6.24;100.00;101217.03;684350;28;1437;-63
2023/02/02 00:30:17;;;;;;;15.60;5.10;;;;;;;6.25;100.00;101211.03;686526;28;1426;-64
2023/02/02 00:30:37;;;;;;;14.50;5.20;;;;;;;6.31;100.00;101218.06;688115;28;4345;-64
2023/02/02 00:30:59;;;;;;;16.48;6.00;;;;;;;6.29;100.00;101211.97;688529;28;1486;-65
2023/02/02 00:31:19;;;;;;;16.23;5.97;;;;;;;6.31;100.00;101212.88;687687;28;1971;-64
2023/02/02 00:31:40;;;;;;;17.07;5.70;;;;;;;6.34;100.00;101218.16;690103;28;1406;-64
2023/02/02 00:32:00;;;;;;;13.75;5.18;;;;;;;6.39;100.00;101226.91;692978;28;1436;-64
2023/02/02 00:32:20;;;;;;;15.37;5.50;;;;;;;6.32;100.00;101212.03;690676;28;1473;-63
2023/02/02 00:32:41;;;;;;;18.00;5.13;;;;;;;6.33;100.00;101216.38;692190;28;1471;-64
2023/02/02 00:33:02;;;;;;;17.40;5.43;;;;;;;6.32;100.00;101219.81;692581;28;1612;-66
2023/02/02 00:33:22;;;;;;;15.50;5.20;;;;;;;6.28;100.00;101208.47;692405;28;1576;-64
2023/02/02 00:33:46;;;;;;;12.60;5.63;;;;;;;6.23;100.00;101211.81;691679;28;4374;-63
2023/02/02 00:34:09;;;;;;;16.33;5.40;;;;;;;6.27;100.00;101211.03;690396;28;1433;-64
2023/02/02 00:34:30;;;;;;;17.25;5.40;;;;;;;6.27;100.00;101211.03;688743;28;1421;-64
2023/02/02 00:34:50;;;;;;;19.53;5.47;;;;;;;6.24;100.00;101211.00;686477;28;1557;-63
2023/02/02 00:35:10;;;;;;;15.00;5.75;;;;;;;6.27;100.00;101209.34;688003;28;1645;-63
2023/02/02 00:35:31;;;;;;;16.50;5.37;;;;;;;6.24;100.00;101211.00;683611;28;1446;-64
2023/02/02 00:35:52;;;;;;;18.00;5.30;;;;;;;6.26;100.00;101214.50;683938;28;844;-65
2023/02/02 00:36:13;;;;;;;17.77;5.60;;;;;;;6.24;100.00;101211.84;686427;28;1586;-64
2023/02/02 00:36:33;;;;;;;15.90;5.30;;;;;;;6.23;100.00;101211.81;688868;28;1571;-65
2023/02/02 00:36:53;;;;;;;16.93;5.27;;;;;;;6.20;100.00;101210.03;692605;28;4302;-64
2023/02/02 00:37:14;;;;;;;17.10;5.17;;;;;;;6.28;100.00;101207.63;692522;28;1619;-64
2023/02/02 00:37:34;;;;;;;17.15;5.40;;;;;;;6.37;100.00;101212.13;692299;28;1318;-65
2023/02/02 00:37:55;;;;;;;14.73;5.10;;;;;;;6.40;100.00;101218.28;688849;28;1408;-65
2023/02/02 00:38:16;;;;;;;16.27;5.55;;;;;;;6.39;100.00;101216.50;689975;28;1473;-64
2023/02/02 00:38:37;;;;;;;15.10;5.20;;;;;;;6.34;100.00;101212.97;689080;28;1211;-63
2023/02/02 00:38:57;;;;;;;17.00;5.37;;;;;;;6.34;100.00;101202.56;688589;28;5043;-64
2023/02/02 00:39:21;;;;;;;17.03;5.70;;;;;;;6.30;100.00;101205.94;692695;28;1464;-63
2023/02/02 00:39:42;;;;;;;15.52;4.55;;;;;;;6.39;100.00;101200.94;692604;28;4622;-64
2023/02/02 00:40:03;;;;;;;15.73;4.85;;;;;;;6.35;100.00;101199.09;694203;28;1373;-64
2023/02/02 00:40:24;;;;;;;13.57;5.00;;;;;;;6.31;100.00;101205.06;691011;28;1492;-65
2023/02/02 00:40:45;;;;;;;16.58;5.00;;;;;;;6.26;100.00;101204.13;690851;28;1441;-63
2023/02/02 00:41:06;;;;;;;16.17;5.13;;;;;;;6.20;100.00;101206.56;688405;28;1804;-64
2023/02/02 00:41:26;;;;;;;15.13;5.25;;;;;;;6.26;100.00;101204.13;690975;28;1551;-64
2023/02/02 00:41:47;;;;;;;15.23;5.10;;;;;;;6.20;100.00;101203.97;691749;28;1409;-64
2023/02/02 00:42:10;;;;;;;14.02;4.72;;;;;;;6.19;100.00;101207.41;692465;28;1220;-66
2023/02/02 00:42:31;;;;;;;16.30;5.10;;;;;;;6.22;100.00;101204.91;692530;28;1666;-64
2023/02/02 00:42:51;;;;;;;16.13;5.70;;;;;;;6.19;100.00;101207.41;691432;28;4330;-64
2023/02/02 00:43:11;;;;;;;15.27;6.00;;;;;;;6.14;100.00;101203.00;693297;28;1744;-64
2023/02/02 00:43:32;;;;;;;13.95;5.35;;;;;;;6.14;100.00;101212.50;694067;28;1682;-64
2023/02/02 00:45:15;;;;;;;17.50;5.50;;;;;;;6.23;100.00;101209.22;696437;28;1458;-65
2023/02/02 00:45:36;;;;;;;18.55;5.15;;;;;;;6.25;100.00;101205.81;695841;28;4383;-64
2023/02/02 00:45:57;;;;;;;14.90;5.20;;;;;;;6.27;100.00;101203.25;696725;28;1487;-64
2023/02/02 00:46:17;;;;;;;13.52;4.78;;;;;;;6.26;100.00;101210.19;695530;28;1428;-64
2023/02/02 00:46:39;;;;;;;15.57;4.63;;;;;;;6.30;100.00;101211.13;693673;28;1237;-63
2023/02/02 00:47:00;;;;;;;14.60;4.68;;;;;;;6.25;100.00;101204.97;694670;28;1345;-63
2023/02/02 00:47:21;;;;;;;16.38;4.97;;;;;;;6.24;100.00;101203.19;689820;28;1541;-63
2023/02/02 00:47:48;;;;;;;17.23;5.05;;;;;;;6.27;100.00;101201.56;684200;28;1490;-61
2023/02/02 00:48:09;;;;;;;16.48;5.13;;;;;;;6.24;100.00;101205.78;683836;28;1390;-65
2023/02/02 00:48:30;;;;;;;16.38;5.10;;;;;;;6.27;100.00;101208.44;683770;28;1492;-64
2023/02/02 00:48:50;;;;;;;18.60;5.27;;;;;;;6.27;100.00;101200.66;685063;28;4294;-64
2023/02/02 00:49:11;;;;;;;16.98;4.85;;;;;;;6.22;100.00;101197.13;689185;28;1323;-65
2023/02/02 00:49:31;;;;;;;15.67;5.10;;;;;;;6.33;100.00;101199.91;686049;28;1491;-65
2023/02/02 00:49:52;;;;;;;13.90;4.95;;;;;;;6.32;100.00;101199.06;684569;28;1489;-64
2023/02/02 00:50:16;;;;;;;14.60;5.00;;;;;;;6.36;100.00;101195.66;684632;28;1282;-63
2023/02/02 00:50:37;;;;;;;12.88;4.78;;;;;;;6.36;100.00;101197.41;684796;28;1511;-64
2023/02/02 00:50:57;;;;;;;16.83;4.70;;;;;;;6.31;100.00;101194.69;686584;28;1504;-63
2023/02/02 00:51:17;;;;;;;14.75;4.93;;;;;;;6.36;100.00;101195.66;684345;28;1914;-63
2023/02/02 00:51:38;;;;;;;14.77;5.30;;;;;;;6.41;100.00;101198.34;686768;28;4521;-64
2023/02/02 00:51:59;;;;;;;17.58;5.32;;;;;;;6.39;100.00;101200.94;686499;28;1537;-64
2023/02/02 00:52:19;;;;;;;17.63;5.53;;;;;;;6.32;100.00;101195.59;684655;28;1612;-65
2023/02/02 00:52:40;;;;;;;16.00;5.07;;;;;;;6.25;100.00;101199.78;686962;28;1632;-65
2023/02/02 00:53:00;;;;;;;14.80;5.07;;;;;;;6.25;100.00;101208.41;686300;28;1560;-63
2023/02/02 00:53:21;;;;;;;17.07;5.20;;;;;;;6.24;100.00;101201.47;691336;28;1275;-65
2023/02/02 00:53:41;;;;;;;17.08;4.72;;;;;;;6.23;100.00;101202.34;690139;28;1473;-68
2023/02/02 00:54:03;;;;;;;16.43;4.60;;;;;;;6.24;100.00;101211.00;691753;28;1352;-65
2023/02/02 00:54:23;;;;;;;16.00;4.95;;;;;;;6.23;100.00;101204.94;694153;28;1425;-69
2023/02/02 00:54:43;;;;;;;14.27;4.60;;;;;;;6.27;100.00;101209.34;691606;28;4357;-66
2023/02/02 00:55:04;;;;;;;14.90;4.82;;;;;;;6.25;100.00;101205.81;690960;28;1333;-63
2023/02/02 00:55:25;;;;;;;14.93;5.07;;;;;;;6.25;100.00;101202.38;689604;28;1492;-62
2023/02/02 00:55:46;;;;;;;14.95;5.07;;;;;;;6.27;100.00;101203.25;690263;28;1461;-64
2023/02/02 00:56:06;;;;;;;19.25;5.00;;;;;;;6.25;100.00;101198.03;691880;28;1213;-63
2023/02/02 00:56:27;;;;;;;17.07;4.73;;;;;;;6.21;100.00;101201.41;692396;28;1394;-63
2023/02/02 00:56:47;;;;;;;14.25;4.70;;;;;;;6.18;100.00;101200.47;692202;28;1368;-64
2023/02/02 00:57:12;;;;;;;16.73;5.00;;;;;;;6.17;100.00;101207.38;691429;28;1345;-64
2023/02/02 00:57:32;;;;;;;14.80;4.80;;;;;;;6.11;100.00;101202.94;691744;28;1444;-66
2023/02/02 00:57:53;;;;;;;13.87;5.20;;;;;;;6.11;100.00;101200.34;691415;28;4318;-64
2023/02/02 00:58:14;;;;;;;16.02;5.15;;;;;;;6.18;100.00;101201.34;690828;28;1291;-64
2023/02/02 00:58:34;;;;;;;15.90;5.07;;;;;;;6.16;100.00;101194.38;688754;28;1491;-63
2023/02/02 00:58:55;;;;;;;17.23;5.30;;;;;;;6.25;100.00;101195.44;688202;28;1434;-64
2023/02/02 00:59:15;;;;;;;15.80;4.77;;;;;;;6.25;100.00;101190.25;688958;28;1518;-65
2023/02/02 00:59:35;;;;;;;16.10;4.83;;;;;;;6.21;100.00;101192.75;689275;28;1584;-64
2023/02/02 00:59:56;;;;;;;16.83;4.93;;;;;;;6.19;100.00;101194.44;689246;28;1481;-63
2023/02/02 01:00:22;;;;;;;16.43;5.07;;;;;;;6.18;100.00;101195.28;692246;28;1306;-64
2023/02/02 01:00:43;;;;;;;17.65;4.90;;;;;;;6.13;100.00;101195.16;694022;28;4329;-65
2023/02/02 01:01:03;;;;;;;16.77;4.87;;;;;;;6.22;100.00;101194.53;694415;28;1354;-63
2023/02/02 01:01:24;;;;;;;12.13;4.57;;;;;;;6.22;100.00;101199.72;692109;28;1527;-63
2023/02/02 01:01:44;;;;;;;12.20;4.73;;;;;;;6.16;100.00;101196.97;692319;28;1500;-66
2023/02/02 01:02:05;;;;;;;16.73;5.35;;;;;;;6.15;100.00;101196.09;689535;28;1398;-64
2023/02/02 01:02:25;;;;;;;16.35;5.38;;;;;;;6.14;100.00;101199.53;689021;28;1425;-65
2023/02/02 01:02:46;;;;;;;16.40;5.20;;;;;;;6.09;100.00;101199.44;687399;28;1402;-64
2023/02/02 01:03:06;;;;;;;18.25;4.90;;;;;;;6.08;100.00;101192.47;687082;28;1299;-65
2023/02/02 01:03:26;;;;;;;17.67;4.87;;;;;;;6.07;100.00;101192.44;689509;28;1474;-64
2023/02/02 01:03:49;;;;;;;15.90;4.90;;;;;;;6.07;100.00;101193.31;686693;28;4929;-64
2023/02/02 01:04:09;;;;;;;18.10;5.00;;;;;;;6.15;100.00;101201.28;690249;28;1266;-64
2023/02/02 01:04:30;;;;;;;15.17;5.00;;;;;;;6.11;100.00;101205.53;686753;28;1485;-64
2023/02/02 01:04:51;;;;;;;16.40;5.32;;;;;;;6.11;100.00;101205.53;690855;28;1504;-64
2023/02/02 01:05:11;;;;;;;15.65;5.38;;;;;;;6.08;100.00;101205.47;690056;28;1302;-63
2023/02/02 01:05:33;;;;;;;15.05;5.13;;;;;;;6.08;100.00;101199.41;691377;28;1386;-63
2023/02/02 01:05:53;;;;;;;17.40;5.57;;;;;;;6.10;100.00;101205.50;693237;28;1440;-62
2023/02/02 01:06:14;;;;;;;15.80;4.90;;;;;;;6.16;100.00;101203.00;691802;28;1599;-64
2023/02/02 01:06:34;;;;;;;14.03;4.63;;;;;;;6.12;100.00;101207.28;692775;28;1567;-63
2023/02/02 01:06:55;;;;;;;14.05;4.65;;;;;;;6.14;100.00;101202.13;694608;28;4377;-65
2023/02/02 01:07:15;;;;;;;17.55;4.90;;;;;;;6.10;100.00;101213.28;694792;28;1531;-64
2023/02/02 01:07:36;;;;;;;17.60;4.90;;;;;;;6.08;100.00;101199.41;694664;28;1568;-64
2023/02/02 01:07:56;;;;;;;15.73;5.18;;;;;;;6.08;100.00;101205.47;692427;28;1516;-65
2023/02/02 01:08:17;;;;;;;18.00;5.10;;;;;;;6.11;100.00;101194.28;693096;28;1448;-63
2023/02/02 01:08:38;;;;;;;13.55;5.03;;;;;;;6.14;100.00;101194.34;688984;28;1631;-63
2023/02/02 01:08:58;;;;;;;14.20;4.68;;;;;;;6.18;100.00;101208.28;686944;28;1581;-64
2023/02/02 01:09:18;;;;;;;17.87;4.77;;;;;;;6.11;100.00;101200.34;687072;28;1468;-65
2023/02/02 01:09:39;;;;;;;17.92;5.05;;;;;;;6.05;100.00;101213.19;686870;28;5235;-65
2023/02/02 01:09:59;;;;;;;17.07;5.20;;;;;;;6.22;100.00;101199.72;688810;28;1596;-63
2023/02/02 01:10:20;;;;;;;14.45;4.70;;;;;;;6.17;100.00;101198.72;687370;28;1585;-66
2023/02/02 01:10:40;;;;;;;13.80;4.70;;;;;;;6.24;100.00;101205.78;689610;28;1639;-65
2023/02/02 01:11:00;;;;;;;14.70;4.97;;;;;;;6.21;100.00;101203.13;692046;28;1567;-64
2023/02/02 01:11:21;;;;;;;14.43;5.13;;;;;;;6.15;100.00;101201.28;692298;28;1910;-63
2023/02/02 01:11:41;;;;;;;16.70;4.83;;;;;;;6.12;100.00;101207.28;689261;28;1319;-64
2023/02/02 01:12:01;;;;;;;18.25;5.00;;;;;;;6.13;100.00;101202.97;689215;28;1295;-64
2023/02/02 01:12:22;;;;;;;16.50;5.00;;;;;;;6.12;100.00;101207.28;689474;28;1477;-65
2023/02/02 01:12:43;;;;;;;16.58;5.18;;;;;;;6.07;100.00;101206.31;687243;28;4333;-64
2023/02/02 01:13:03;;;;;;;15.07;4.80;;;;;;;6.12;100.00;101199.50;688074;28;1354;-62
2023/02/02 01:13:25;;;;;;;13.00;4.68;;;;;;;6.05;100.00;101207.09;688320;28;1490;-66
2023/02/02 01:13:45;;;;;;;15.65;5.13;;;;;;;6.04;100.00;101211.44;690573;28;1462;-65
2023/02/02 01:14:06;;;;;;;18.50;5.50;;;;;;;6.07;100.00;101214.09;690556;28;1285;-63
2023/02/02 01:14:28;;;;;;;18.48;5.25;;;;;;;6.03;100.00;101211.41;690293;28;1425;-64
2023/02/02 01:14:49;;;;;;;15.07;5.05;;;;;;;6.08;100.00;101215.84;689320;28;1315;-64
2023/02/02 01:15:11;;;;;;;18.03;5.40;;;;;;;6.09;100.00;101215.00;686269;28;1298;-63
2023/02/02 01:15:31;;;;;;;15.38;4.90;;;;;;;6.04;100.00;101219.22;684824;28;1450;-64
2023/02/02 01:15:56;;;;;;;15.15;4.97;;;;;;;6.13;100.00;101215.94;686623;28;4285;-62
2023/02/02 01:16:16;;;;;;;16.33;5.40;;;;;;;6.17;100.00;101215.16;688084;28;3930;-64
2023/02/02 01:16:37;;;;;;;18.63;5.50;;;;;;;6.08;100.00;101218.44;687244;28;1434;-65
2023/02/02 01:16:57;;;;;;;15.83;5.30;;;;;;;6.05;100.00;101215.78;689994;28;1564;-64
2023/02/02 01:17:19;;;;;;;17.42;5.10;;;;;;;6.07;100.00;101213.22;688991;28;1470;-63
2023/02/02 01:17:40;;;;;;;15.00;4.70;;;;;;;6.00;100.00;101212.19;685329;28;1541;-64
2023/02/02 01:18:00;;;;;;;14.98;4.80;;;;;;;5.97;100.00;101217.28;682972;28;1573;-64
2023/02/02 01:18:23;;;;;;;15.90;4.93;;;;;;;5.98;100.00;101213.88;683643;28;1432;-65
2023/02/02 01:18:44;;;;;;;16.08;5.10;;;;;;;5.97;100.00;101214.69;682373;28;4545;-67
2023/02/02 01:19:04;;;;;;;18.83;5.80;;;;;;;5.93;100.00;101212.88;684503;28;1330;-64
2023/02/02 01:19:25;;;;;;;17.83;5.60;;;;;;;5.92;100.00;101214.56;689423;28;1309;-66
2023/02/02 01:19:46;;;;;;;14.20;4.78;;;;;;;5.89;100.00;101211.03;688677;28;1377;-64
2023/02/02 01:20:09;;;;;;;14.47;4.90;;;;;;;5.89;100.00;101213.66;691449;28;1258;-67
2023/02/02 01:20:31;;;;;;;19.52;5.57;;;;;;;6.03;100.00;101206.22;694322;28;1409;-63
2023/02/02 01:21:03;;;;;;;16.67;5.13;;;;;;;5.99;100.00;101210.44;693285;28;1318;-65
2023/02/02 01:21:23;;;;;;;16.23;5.47;;;;;;;5.96;100.00;101223.31;693596;28;1361;-65
2023/02/02 01:21:44;;;;;;;16.48;5.40;;;;;;;5.95;100.00;101222.44;693435;28;5214;-66
2023/02/02 01:22:04;;;;;;;17.10;4.90;;;;;;;5.94;100.00;101217.19;691883;28;1206;-65
2023/02/02 01:22:25;;;;;;;16.30;4.80;;;;;;;5.93;100.00;101223.25;691432;28;1461;-64
2023/02/02 01:22:46;;;;;;;14.68;5.03;;;;;;;5.90;100.00;101218.88;691939;28;1258;-63
2023/02/02 01:23:06;;;;;;;16.88;5.10;;;;;;;5.89;100.00;101222.28;687751;28;1283;-63
2023/02/02 01:23:29;;;;;;;19.27;5.53;;;;;;;5.94;100.00;101217.19;687310;28;1320;-63
2023/02/02 01:23:49;;;;;;;18.92;5.40;;;;;;;6.02;100.00;101214.81;687564;28;1370;-64
2023/02/02 01:24:10;;;;;;;16.20;5.30;;;;;;;5.98;100.00;101224.25;685820;28;1399;-65
2023/02/02 01:24:30;;;;;;;16.97;5.10;;;;;;;6.02;100.00;101215.69;686126;28;1598;-64
2023/02/02 01:24:53;;;;;;;17.77;5.43;;;;;;;5.99;100.00;101227.75;686515;28;4251;-64
2023/02/02 01:25:14;;;;;;;18.50;5.18;;;;;;;5.93;100.00;101218.06;690372;28;866;-64
2023/02/02 01:25:37;;;;;;;17.88;5.30;;;;;;;5.90;100.00;101223.19;690181;28;1660;-64
2023/02/02 01:25:59;;;;;;;15.70;5.10;;;;;;;5.90;100.00;101220.59;691489;28;1599;-64
2023/02/02 01:26:20;;;;;;;15.45;5.00;;;;;;;5.88;100.00;101220.53;693206;28;1675;-63
2023/02/02 01:26:40;;;;;;;15.17;4.73;;;;;;;5.93;100.00;101223.25;693346;28;1722;-65
2023/02/02 01:27:01;;;;;;;15.70;5.22;;;;;;;5.92;100.00;101224.09;692554;28;1631;-65
2023/02/02 01:27:21;;;;;;;16.67;5.60;;;;;;;5.97;100.00;101218.19;693044;28;1353;-65
2023/02/02 01:27:41;;;;;;;15.95;5.40;;;;;;;5.93;100.00;101224.13;691114;28;4336;-65
2023/02/02 01:28:02;;;;;;;15.30;5.27;;;;;;;5.90;100.00;101226.66;689230;28;1442;-66
2023/02/02 01:28:23;;;;;;;16.83;5.50;;;;;;;5.91;100.00;101224.91;688482;28;1521;-64
2023/02/02 01:28:44;;;;;;;15.93;5.30;;;;;;;5.92;100.00;101230.13;688785;28;1589;-64
2023/02/02 01:29:04;;;;;;;16.17;5.22;;;;;;;5.93;100.00;101223.25;689197;28;1394;-64
2023/02/02 01:29:25;;;;;;;16.08;5.32;;;;;;;5.91;100.00;101224.91;689201;28;1429;-64
2023/02/02 01:29:45;;;;;;;16.33;4.83;;;;;;;5.92;100.00;101224.09;686522;28;1533;-64
2023/02/02 01:30:06;;;;;;;17.13;5.00;;;;;;;5.94;100.00;101227.56;686826;28;1332;-64
2023/02/02 01:30:27;;;;;;;15.18;4.95;;;;;;;5.91;100.00;101227.50;686654;28;1368;-64
2023/02/02 01:30:49;;;;;;;14.43;4.85;;;;;;;5.91;100.00;101231.00;685750;28;4358;-64
2023/02/02 01:31:15;;;;;;;16.60;5.20;;;;;;;5.98;100.00;101234.63;685996;28;1973;-62
2023/02/02 01:31:36;;;;;;;15.70;4.75;;;;;;;6.05;100.00;101231.34;688880;28;1387;-63
2023/02/02 01:31:57;;;;;;;18.45;5.55;;;;;;;6.01;100.00;101232.13;692165;28;1417;-64
2023/02/02 01:32:18;;;;;;;17.33;4.93;;;;;;;6.03;100.00;101235.63;692825;28;1441;-63
2023/02/02 01:32:39;;;;;;;16.75;4.78;;;;;;;6.09;100.00;101233.19;690249;28;1572;-64
2023/02/02 01:33:00;;;;;;;17.47;5.10;;;;;;;6.04;100.00;101234.78;689391;28;1512;-64
2023/02/02 01:33:21;;;;;;;17.83;5.27;;;;;;;6.08;100.00;101235.75;689195;28;1454;-64
2023/02/02 01:33:43;;;;;;;20.55;5.32;;;;;;;6.12;100.00;101233.25;687126;28;4284;-64
2023/02/02 01:34:03;;;;;;;15.95;4.82;;;;;;;6.10;100.00;101234.91;689433;28;1583;-64
2023/02/02 01:34:24;;;;;;;15.80;4.70;;;;;;;6.12;100.00;101234.97;692393;28;1462;-64
2023/02/02 01:34:44;;;;;;;14.85;4.90;;;;;;;6.13;100.00;101240.19;689607;28;1496;-64
2023/02/02 01:35:05;;;;;;;14.43;4.60;;;;;;;6.13;100.00;101244.50;688749;28;1337;-63
2023/02/02 01:35:25;;;;;;;17.25;4.47;;;;;;;6.14;100.00;101235.88;688710;28;1461;-63
2023/02/02 01:35:54;;;;;;;17.33;5.23;;;;;;;6.20;100.00;101236.00;691262;28;1434;-63
2023/02/02 01:36:18;;;;;;;16.52;5.05;;;;;;;6.21;100.00;101236.91;686383;28;1248;-64
2023/02/02 01:36:38;;;;;;;15.35;4.55;;;;;;;6.19;100.00;101226.47;688046;28;4493;-68
2023/02/02 01:36:58;;;;;;;16.90;5.00;;;;;;;6.13;100.00;101228.91;686607;28;1351;-63
2023/02/02 01:37:21;;;;;;;15.67;5.00;;;;;;;6.11;100.00;101235.81;689239;28;1375;-65
2023/02/02 01:37:41;;;;;;;13.95;4.72;;;;;;;6.11;100.00;101236.69;689203;28;1762;-64
2023/02/02 01:38:01;;;;;;;15.15;5.07;;;;;;;6.09;100.00;101233.19;687541;28;1120;-65
2023/02/02 01:38:23;;;;;;;15.73;5.03;;;;;;;6.03;100.00;101230.44;689426;28;1468;-66
2023/02/02 01:38:44;;;;;;;14.13;4.50;;;;;;;6.01;100.00;101234.72;690064;28;5813;-65
2023/02/02 01:39:04;;;;;;;12.07;4.60;;;;;;;5.98;100.00;101224.25;691338;28;1262;-64
2023/02/02 01:39:25;;;;;;;15.27;5.13;;;;;;;6.01;100.00;101229.53;693579;28;1468;-65
2023/02/02 01:39:45;;;;;;;15.25;5.32;;;;;;;5.99;100.00;101233.78;691693;28;4298;-63
2023/02/02 01:40:06;;;;;;;16.80;4.90;;;;;;;6.04;100.00;101237.38;691744;28;1353;-63
2023/02/02 01:40:26;;;;;;;14.85;4.80;;;;;;;6.08;100.00;101236.63;692100;28;1429;-65
2023/02/02 01:40:50;;;;;;;13.45;4.68;;;;;;;6.07;100.00;101236.59;692751;28;1429;-64
2023/02/02 01:41:17;;;;;;;15.73;5.00;;;;;;;6.09;100.00;101233.19;686439;28;1898;-62